Anaconda, New Mexico
Current Conditions -  °F | °C
As of 9:35 AM on Friday 19 Dec 2014 (Local Time) from KGNT Reporting Station
Clear Clear  
Wind Chill: 22°   Ceiling: Unl
Heat Index: 31°   Visibility: 10mi
Dew Point: 26°   Wind: 12mph
Humidity: 83%   Direction: 330°NNW
Pressure: 30.27"   Gusts: NA
Location:  35.2644°N, 107.733°W
Report Text: KGNT 191635Z AUTO 33010KT 10SM CLR 00/M03 A3027 RMK AO2 T10051031
Loading
Personal Weather Stations






























Interactive Weather Map New forecast layout! Learn more

10-Day Weather Forecast

Advertisements
Track Severe Weather on mobile